DABS

Cheikh Larbi Tébessi Airport

Tébessi, Algeria
METAR DABS 170200Z 34004KT 9999 FEW040 12/11 Q1016
Observed Flight Rules
Oct-17 @ 02:00 UTC (an hour ago) Visual Flight Rules
Wind Visibility Clouds
340° at 4 knots 10,000+ meters
  • Few at 4,000' AGL
Temperatures Readings
Current 12°C / 54°F
Dewpoint 11°C / 52°F
Humidity 94%
Altimeter 30" Hg
Pressure 1016 hPa
Elevation 813
METAR DABS 170200Z 34004KT 9999 FEW040 12/11 Q1016
Observed Flight Rules
Oct-17 @ 02:00 UTC
(an hour ago)
VFR
Wind Visibility
340° at 4 knots 10,000+ meters
Clouds
  • Few at 4,000' AGL
Temperature Dewpoint
12°C / 54°F 11°C / 52°F
Humidity Altimeter Pressure
94% 30" Hg 1016 hPa